Latest  Newer  Older  Last 2 hours slideshow  Last 24 hours slideshow  Refresh every 5 minutes 
Current image  Latest image  Rain/snow radar  Cloud coverage sat images 

All time is UTC (add 2 hours to UTC in wintertime, 3 hours to UTC in DST for Latvia local time)

2021/02/24 01:50 EVRA 240150Z 22004KT 7000 FEW007 OVC021 03/02 Q1026 R18/290195 NOSIG
2021/02/24 01:50 EVLA 240150Z AUTO 20003KT 2400 BR SCT003/// SCT069/// 00/00 Q1027
2021/02/24 01:50 EVVA 240150Z AUTO 21003KT 5000 BR NSC 00/00 Q1026
2021/02/24 01:50 EYKA 240150Z 25005KT 0100 R26/0450N FG VV001 03/01 Q1028
2021/02/24 01:50 EYPA 240150Z AUTO 21004KT 1000 R19/1600VP2000N BR BKN002/// 03/03 Q1028
2021/02/24 01:50 EYSA 240150Z AUTO 23006KT 0650NDV R14L/0700D FG VV002 01/01 Q1027 R14L/19//95 R14R/19//95
2021/02/24 01:50 EYVI 240150Z 30006KT 4500 BR OVC004 03/02 Q1028 R19/2///95 TEMPO 1500 BR OVC002

2021/02/24 01:50 EEKE 240150Z AUTO 24003KT 190V300 8000NDV OVC013 02/02 Q1025

2021/02/24 01:50 EETN 240150Z 26008KT 0800 R26/2000D FG VV002 01/01 Q1022 R08/290195
2021/02/24 01:50 EETU 240150Z AUTO 25007KT 1800 BR OVC002/// 02/02 Q1022
   RIGA AIRPORT     EVRA               56 55N  023 58E   10   X     T          6 LV
   LIEPAJA INTL     EVLA        26406  56 31N  021 06E    4   X                8 LV
   VENTPILS         EVVA               57 21N  021 33E    6   X                8 LV
   KAUNAS           EYKA               54 54N  023 55E   77   X     T          6 LT
   PALANGA INTL     EYPA               55 55N  021 03E   10   X                6 LT
   SIAULIAI INTL    EYSA               55 54N  023 24E  135   X     T          6 LT
   VILNIUS INTL     EYVI        26730  54 38N  025 17E  197   X     T          6 LT
   KARDLA           EEKA        26116  58 59N  022 50E    4   X                8 EE
   KURESSAARE       EEKE               58 14N  022 31E    4   X                8 EE
   PARNU            EEPU               58 25N  024 28E   14   X                8 EE
   TALLINN          EETN        26038  59 24N  024 49E   40   X     T          8 EE
   TARTU            EETU               58 19N  026 41E   67   X                8 EE